sensor_id;sensor_type;location;lat;lon;timestamp;pressure;altitude;pressure_sealevel;temperature
63220;BMP180;49320;52.512;13.448;2023-02-18T00:01:28;100997.00;;;14.20
63220;BMP180;49320;52.512;13.448;2023-02-18T00:03:59;101002.00;;;14.20
63220;BMP180;49320;52.512;13.448;2023-02-18T00:06:30;100996.00;;;14.20
63220;BMP180;49320;52.512;13.448;2023-02-18T00:08:58;100987.00;;;14.20
63220;BMP180;49320;52.512;13.448;2023-02-18T00:11:31;100988.00;;;14.20
63220;BMP180;49320;52.512;13.448;2023-02-18T00:14:02;100989.00;;;14.10
63220;BMP180;49320;52.512;13.448;2023-02-18T00:16:30;100985.00;;;14.20
63220;BMP180;49320;52.512;13.448;2023-02-18T00:19:00;100983.00;;;14.20
63220;BMP180;49320;52.512;13.448;2023-02-18T00:21:28;100989.00;;;14.20
63220;BMP180;49320;52.512;13.448;2023-02-18T00:23:55;100993.00;;;14.20
63220;BMP180;49320;52.512;13.448;2023-02-18T00:26:22;100998.00;;;14.10
63220;BMP180;49320;52.512;13.448;2023-02-18T00:28:50;101018.00;;;14.10
63220;BMP180;49320;52.512;13.448;2023-02-18T00:31:22;101011.00;;;14.10
63220;BMP180;49320;52.512;13.448;2023-02-18T00:33:49;101008.00;;;14.10
63220;BMP180;49320;52.512;13.448;2023-02-18T00:36:19;101008.00;;;14.10
63220;BMP180;49320;52.512;13.448;2023-02-18T00:38:57;101017.00;;;14.10
63220;BMP180;49320;52.512;13.448;2023-02-18T00:41:27;101015.00;;;14.10
63220;BMP180;49320;52.512;13.448;2023-02-18T00:43:54;101019.00;;;14.00
63220;BMP180;49320;52.512;13.448;2023-02-18T00:46:23;101021.00;;;14.00
63220;BMP180;49320;52.512;13.448;2023-02-18T00:48:50;101036.00;;;14.00
63220;BMP180;49320;52.512;13.448;2023-02-18T00:51:16;101017.00;;;14.00
63220;BMP180;49320;52.512;13.448;2023-02-18T00:53:43;101025.00;;;13.90
63220;BMP180;49320;52.512;13.448;2023-02-18T00:56:10;101027.00;;;13.90
63220;BMP180;49320;52.512;13.448;2023-02-18T00:58:37;101042.00;;;13.90
63220;BMP180;49320;52.512;13.448;2023-02-18T01:01:06;101032.00;;;13.90
63220;BMP180;49320;52.512;13.448;2023-02-18T01:03:35;101032.00;;;13.80
63220;BMP180;49320;52.512;13.448;2023-02-18T01:06:03;101030.00;;;13.80
63220;BMP180;49320;52.512;13.448;2023-02-18T01:08:30;101030.00;;;13.80
63220;BMP180;49320;52.512;13.448;2023-02-18T01:10:58;101040.00;;;13.80
63220;BMP180;49320;52.512;13.448;2023-02-18T01:13:26;101030.00;;;13.80
63220;BMP180;49320;52.512;13.448;2023-02-18T01:15:53;101030.00;;;13.70
63220;BMP180;49320;52.512;13.448;2023-02-18T01:18:21;101009.00;;;13.70
63220;BMP180;49320;52.512;13.448;2023-02-18T01:20:48;101021.00;;;13.70
63220;BMP180;49320;52.512;13.448;2023-02-18T01:23:16;101024.00;;;13.70
63220;BMP180;49320;52.512;13.448;2023-02-18T01:25:44;101025.00;;;13.60
63220;BMP180;49320;52.512;13.448;2023-02-18T01:28:12;101028.00;;;13.60
63220;BMP180;49320;52.512;13.448;2023-02-18T01:30:40;101030.00;;;13.60
63220;BMP180;49320;52.512;13.448;2023-02-18T01:33:08;101020.00;;;13.50
63220;BMP180;49320;52.512;13.448;2023-02-18T01:35:39;101022.00;;;13.50
63220;BMP180;49320;52.512;13.448;2023-02-18T01:38:06;101030.00;;;13.50
63220;BMP180;49320;52.512;13.448;2023-02-18T01:40:34;101028.00;;;13.50
63220;BMP180;49320;52.512;13.448;2023-02-18T01:43:01;101021.00;;;13.50
63220;BMP180;49320;52.512;13.448;2023-02-18T01:48:27;101024.00;;;13.50
63220;BMP180;49320;52.512;13.448;2023-02-18T01:51:08;101034.00;;;13.50
63220;BMP180;49320;52.512;13.448;2023-02-18T01:53:53;101032.00;;;13.50
63220;BMP180;49320;52.512;13.448;2023-02-18T01:56:29;101037.00;;;13.40
63220;BMP180;49320;52.512;13.448;2023-02-18T01:59:05;101041.00;;;13.40
63220;BMP180;49320;52.512;13.448;2023-02-18T02:01:34;101028.00;;;13.40
63220;BMP180;49320;52.512;13.448;2023-02-18T02:04:01;101014.00;;;13.40
63220;BMP180;49320;52.512;13.448;2023-02-18T02:06:28;101016.00;;;13.40
63220;BMP180;49320;52.512;13.448;2023-02-18T02:09:01;101014.00;;;13.40
63220;BMP180;49320;52.512;13.448;2023-02-18T02:17:43;101028.00;;;13.40
63220;BMP180;49320;52.512;13.448;2023-02-18T02:36:12;101031.00;;;13.30
63220;BMP180;49320;52.512;13.448;2023-02-18T02:39:03;101032.00;;;13.30
63220;BMP180;49320;52.512;13.448;2023-02-18T02:41:49;101029.00;;;13.30
63220;BMP180;49320;52.512;13.448;2023-02-18T02:44:37;101031.00;;;13.30
63220;BMP180;49320;52.512;13.448;2023-02-18T02:47:16;101042.00;;;13.30
63220;BMP180;49320;52.512;13.448;2023-02-18T02:50:00;101038.00;;;13.30
63220;BMP180;49320;52.512;13.448;2023-02-18T02:52:46;101041.00;;;13.30
63220;BMP180;49320;52.512;13.448;2023-02-18T02:55:13;101037.00;;;13.30
63220;BMP180;49320;52.512;13.448;2023-02-18T02:57:46;101050.00;;;13.20
63220;BMP180;49320;52.512;13.448;2023-02-18T03:00:17;101049.00;;;13.20
63220;BMP180;49320;52.512;13.448;2023-02-18T03:03:16;101047.00;;;13.20
63220;BMP180;49320;52.512;13.448;2023-02-18T03:06:10;101038.00;;;13.20
63220;BMP180;49320;52.512;13.448;2023-02-18T03:09:37;101056.00;;;13.20
63220;BMP180;49320;52.512;13.448;2023-02-18T03:12:02;101035.00;;;13.20
63220;BMP180;49320;52.512;13.448;2023-02-18T03:17:37;101041.00;;;13.10
63220;BMP180;49320;52.512;13.448;2023-02-18T03:20:22;101025.00;;;13.10
63220;BMP180;49320;52.512;13.448;2023-02-18T03:22:52;101032.00;;;13.10
63220;BMP180;49320;52.512;13.448;2023-02-18T03:25:21;101041.00;;;13.10
63220;BMP180;49320;52.512;13.448;2023-02-18T03:28:04;101037.00;;;13.10
63220;BMP180;49320;52.512;13.448;2023-02-18T03:30:55;101022.00;;;13.10
63220;BMP180;49320;52.512;13.448;2023-02-18T03:33:39;101026.00;;;13.10
63220;BMP180;49320;52.512;13.448;2023-02-18T03:36:09;101034.00;;;13.00
63220;BMP180;49320;52.512;13.448;2023-02-18T03:38:50;101028.00;;;13.00
63220;BMP180;49320;52.512;13.448;2023-02-18T03:41:19;101023.00;;;13.00
63220;BMP180;49320;52.512;13.448;2023-02-18T03:43:58;101029.00;;;13.10
63220;BMP180;49320;52.512;13.448;2023-02-18T03:46:30;101026.00;;;13.10
63220;BMP180;49320;52.512;13.448;2023-02-18T03:48:57;101027.00;;;13.10
63220;BMP180;49320;52.512;13.448;2023-02-18T03:51:24;101027.00;;;13.10
63220;BMP180;49320;52.512;13.448;2023-02-18T03:53:51;101034.00;;;13.10
63220;BMP180;49320;52.512;13.448;2023-02-18T03:56:18;101027.00;;;13.10
63220;BMP180;49320;52.512;13.448;2023-02-18T03:58:46;101022.00;;;13.10
63220;BMP180;49320;52.512;13.448;2023-02-18T04:01:13;101037.00;;;13.10
63220;BMP180;49320;52.512;13.448;2023-02-18T04:03:39;101040.00;;;13.10
63220;BMP180;49320;52.512;13.448;2023-02-18T04:06:07;101040.00;;;13.10
63220;BMP180;49320;52.512;13.448;2023-02-18T04:08:34;101049.00;;;13.10
63220;BMP180;49320;52.512;13.448;2023-02-18T04:11:01;101026.00;;;13.10
63220;BMP180;49320;52.512;13.448;2023-02-18T04:13:28;101049.00;;;13.10
63220;BMP180;49320;52.512;13.448;2023-02-18T04:15:54;101033.00;;;13.20
63220;BMP180;49320;52.512;13.448;2023-02-18T04:18:22;101045.00;;;13.20
63220;BMP180;49320;52.512;13.448;2023-02-18T04:20:49;101036.00;;;13.10
63220;BMP180;49320;52.512;13.448;2023-02-18T04:23:15;101061.00;;;13.10
63220;BMP180;49320;52.512;13.448;2023-02-18T04:25:42;101059.00;;;13.10
63220;BMP180;49320;52.512;13.448;2023-02-18T04:28:11;101058.00;;;13.10
63220;BMP180;49320;52.512;13.448;2023-02-18T04:30:39;101064.00;;;13.10
63220;BMP180;49320;52.512;13.448;2023-02-18T04:33:06;101057.00;;;13.10
63220;BMP180;49320;52.512;13.448;2023-02-18T04:35:33;101064.00;;;13.10
63220;BMP180;49320;52.512;13.448;2023-02-18T04:38:00;101064.00;;;13.10
63220;BMP180;49320;52.512;13.448;2023-02-18T04:40:27;101063.00;;;13.10
63220;BMP180;49320;52.512;13.448;2023-02-18T04:42:57;101059.00;;;13.10
63220;BMP180;49320;52.512;13.448;2023-02-18T04:45:26;101060.00;;;13.10
63220;BMP180;49320;52.512;13.448;2023-02-18T04:47:53;101064.00;;;13.00
63220;BMP180;49320;52.512;13.448;2023-02-18T04:50:21;101071.00;;;13.00
63220;BMP180;49320;52.512;13.448;2023-02-18T04:52:49;101061.00;;;13.00
63220;BMP180;49320;52.512;13.448;2023-02-18T04:55:15;101062.00;;;13.00
63220;BMP180;49320;52.512;13.448;2023-02-18T04:57:42;101068.00;;;13.00
63220;BMP180;49320;52.512;13.448;2023-02-18T05:00:15;101069.00;;;13.00
63220;BMP180;49320;52.512;13.448;2023-02-18T05:02:43;101072.00;;;13.00
63220;BMP180;49320;52.512;13.448;2023-02-18T05:05:12;101069.00;;;13.00
63220;BMP180;49320;52.512;13.448;2023-02-18T05:07:39;101069.00;;;12.90
63220;BMP180;49320;52.512;13.448;2023-02-18T05:10:11;101075.00;;;12.90
63220;BMP180;49320;52.512;13.448;2023-02-18T05:12:39;101076.00;;;12.90
63220;BMP180;49320;52.512;13.448;2023-02-18T05:15:07;101058.00;;;12.90
63220;BMP180;49320;52.512;13.448;2023-02-18T05:17:34;101059.00;;;13.00
63220;BMP180;49320;52.512;13.448;2023-02-18T05:20:02;101063.00;;;13.00
63220;BMP180;49320;52.512;13.448;2023-02-18T05:22:29;101066.00;;;13.00
63220;BMP180;49320;52.512;13.448;2023-02-18T05:24:56;101072.00;;;13.00
63220;BMP180;49320;52.512;13.448;2023-02-18T05:27:22;101054.00;;;13.00
63220;BMP180;49320;52.512;13.448;2023-02-18T05:29:49;101049.00;;;13.10
63220;BMP180;49320;52.512;13.448;2023-02-18T05:32:16;101057.00;;;13.10
63220;BMP180;49320;52.512;13.448;2023-02-18T05:34:43;101046.00;;;13.10
63220;BMP180;49320;52.512;13.448;2023-02-18T05:37:09;101045.00;;;13.20
63220;BMP180;49320;52.512;13.448;2023-02-18T05:39:36;101048.00;;;13.20
63220;BMP180;49320;52.512;13.448;2023-02-18T05:42:03;101045.00;;;13.30
63220;BMP180;49320;52.512;13.448;2023-02-18T05:44:30;101043.00;;;13.30
63220;BMP180;49320;52.512;13.448;2023-02-18T05:47:09;101049.00;;;13.40
63220;BMP180;49320;52.512;13.448;2023-02-18T05:49:39;101041.00;;;13.40
63220;BMP180;49320;52.512;13.448;2023-02-18T05:52:07;101037.00;;;13.40
63220;BMP180;49320;52.512;13.448;2023-02-18T05:54:35;101042.00;;;13.50
63220;BMP180;49320;52.512;13.448;2023-02-18T05:57:02;101046.00;;;13.50
63220;BMP180;49320;52.512;13.448;2023-02-18T05:59:30;101043.00;;;13.60
63220;BMP180;49320;52.512;13.448;2023-02-18T06:01:57;101047.00;;;13.70
63220;BMP180;49320;52.512;13.448;2023-02-18T06:04:24;101044.00;;;13.70
63220;BMP180;49320;52.512;13.448;2023-02-18T06:06:51;101058.00;;;13.70
63220;BMP180;49320;52.512;13.448;2023-02-18T06:09:18;101053.00;;;13.80
63220;BMP180;49320;52.512;13.448;2023-02-18T06:11:45;101046.00;;;13.80
63220;BMP180;49320;52.512;13.448;2023-02-18T06:14:11;101056.00;;;13.80
63220;BMP180;49320;52.512;13.448;2023-02-18T06:16:38;101053.00;;;13.90
63220;BMP180;49320;52.512;13.448;2023-02-18T06:19:05;101042.00;;;13.90
63220;BMP180;49320;52.512;13.448;2023-02-18T06:21:32;101041.00;;;13.90
63220;BMP180;49320;52.512;13.448;2023-02-18T06:23:59;101044.00;;;13.90
63220;BMP180;49320;52.512;13.448;2023-02-18T06:26:26;101050.00;;;13.90
63220;BMP180;49320;52.512;13.448;2023-02-18T06:28:52;101047.00;;;14.00
63220;BMP180;49320;52.512;13.448;2023-02-18T06:31:19;101052.00;;;14.00
63220;BMP180;49320;52.512;13.448;2023-02-18T06:33:46;101054.00;;;14.00
63220;BMP180;49320;52.512;13.448;2023-02-18T06:36:13;101053.00;;;14.00
63220;BMP180;49320;52.512;13.448;2023-02-18T06:38:43;101052.00;;;14.10
63220;BMP180;49320;52.512;13.448;2023-02-18T06:41:13;101036.00;;;14.10
63220;BMP180;49320;52.512;13.448;2023-02-18T06:43:40;101038.00;;;14.10
63220;BMP180;49320;52.512;13.448;2023-02-18T06:46:07;101038.00;;;14.20
63220;BMP180;49320;52.512;13.448;2023-02-18T06:48:34;101039.00;;;14.20
63220;BMP180;49320;52.512;13.448;2023-02-18T06:51:01;101026.00;;;14.20
63220;BMP180;49320;52.512;13.448;2023-02-18T06:53:29;101017.00;;;14.20
63220;BMP180;49320;52.512;13.448;2023-02-18T06:55:56;101025.00;;;14.30
63220;BMP180;49320;52.512;13.448;2023-02-18T06:58:22;101031.00;;;14.30
63220;BMP180;49320;52.512;13.448;2023-02-18T07:00:49;101030.00;;;14.30
63220;BMP180;49320;52.512;13.448;2023-02-18T07:03:16;101040.00;;;14.30
63220;BMP180;49320;52.512;13.448;2023-02-18T07:05:43;101039.00;;;14.30
63220;BMP180;49320;52.512;13.448;2023-02-18T07:08:10;101032.00;;;14.40
63220;BMP180;49320;52.512;13.448;2023-02-18T07:10:38;101039.00;;;14.40
63220;BMP180;49320;52.512;13.448;2023-02-18T07:13:05;101026.00;;;14.40
63220;BMP180;49320;52.512;13.448;2023-02-18T07:15:32;101023.00;;;14.40
63220;BMP180;49320;52.512;13.448;2023-02-18T07:17:59;101029.00;;;14.40
63220;BMP180;49320;52.512;13.448;2023-02-18T07:20:27;101027.00;;;14.40
63220;BMP180;49320;52.512;13.448;2023-02-18T07:22:54;101028.00;;;14.40
63220;BMP180;49320;52.512;13.448;2023-02-18T07:25:21;101022.00;;;14.40
63220;BMP180;49320;52.512;13.448;2023-02-18T07:27:50;101006.00;;;14.50
63220;BMP180;49320;52.512;13.448;2023-02-18T07:30:18;101004.00;;;14.50
63220;BMP180;49320;52.512;13.448;2023-02-18T07:32:46;101010.00;;;14.50
63220;BMP180;49320;52.512;13.448;2023-02-18T07:35:14;101007.00;;;14.60
63220;BMP180;49320;52.512;13.448;2023-02-18T07:37:46;101027.00;;;14.60
63220;BMP180;49320;52.512;13.448;2023-02-18T07:40:18;101013.00;;;14.60
63220;BMP180;49320;52.512;13.448;2023-02-18T07:42:45;101004.00;;;14.60
63220;BMP180;49320;52.512;13.448;2023-02-18T07:45:12;101009.00;;;14.70
63220;BMP180;49320;52.512;13.448;2023-02-18T07:47:39;101000.00;;;14.70
63220;BMP180;49320;52.512;13.448;2023-02-18T07:50:09;100985.00;;;14.70
63220;BMP180;49320;52.512;13.448;2023-02-18T07:52:35;100986.00;;;14.80
63220;BMP180;49320;52.512;13.448;2023-02-18T07:55:02;100991.00;;;14.80
63220;BMP180;49320;52.512;13.448;2023-02-18T07:57:29;100986.00;;;14.90
63220;BMP180;49320;52.512;13.448;2023-02-18T07:59:56;100987.00;;;14.90
63220;BMP180;49320;52.512;13.448;2023-02-18T08:02:23;100984.00;;;14.90
63220;BMP180;49320;52.512;13.448;2023-02-18T08:04:50;100993.00;;;14.90
63220;BMP180;49320;52.512;13.448;2023-02-18T08:07:20;100997.00;;;14.90
63220;BMP180;49320;52.512;13.448;2023-02-18T08:09:47;100985.00;;;14.90
63220;BMP180;49320;52.512;13.448;2023-02-18T08:12:16;100982.00;;;14.90
63220;BMP180;49320;52.512;13.448;2023-02-18T08:14:43;100971.00;;;14.90
63220;BMP180;49320;52.512;13.448;2023-02-18T08:17:10;100968.00;;;14.90
63220;BMP180;49320;52.512;13.448;2023-02-18T08:19:37;100967.00;;;15.00
63220;BMP180;49320;52.512;13.448;2023-02-18T08:22:04;100956.00;;;15.00
63220;BMP180;49320;52.512;13.448;2023-02-18T08:24:31;100954.00;;;15.00
63220;BMP180;49320;52.512;13.448;2023-02-18T08:26:58;100949.00;;;15.00
63220;BMP180;49320;52.512;13.448;2023-02-18T08:29:27;100955.00;;;14.90
63220;BMP180;49320;52.512;13.448;2023-02-18T08:31:55;100952.00;;;14.90
63220;BMP180;49320;52.512;13.448;2023-02-18T08:34:24;100949.00;;;14.90
63220;BMP180;49320;52.512;13.448;2023-02-18T08:36:51;100944.00;;;14.90
63220;BMP180;49320;52.512;13.448;2023-02-18T08:39:18;100927.00;;;14.90
63220;BMP180;49320;52.512;13.448;2023-02-18T08:41:44;100941.00;;;14.90
63220;BMP180;49320;52.512;13.448;2023-02-18T08:44:12;100942.00;;;14.90
63220;BMP180;49320;52.512;13.448;2023-02-18T08:46:39;100940.00;;;14.90
63220;BMP180;49320;52.512;13.448;2023-02-18T08:49:05;100932.00;;;14.90
63220;BMP180;49320;52.512;13.448;2023-02-18T08:51:33;100931.00;;;15.00
63220;BMP180;49320;52.512;13.448;2023-02-18T08:54:00;100941.00;;;15.00
63220;BMP180;49320;52.512;13.448;2023-02-18T08:56:27;100932.00;;;15.00
63220;BMP180;49320;52.512;13.448;2023-02-18T08:58:54;100932.00;;;15.00
63220;BMP180;49320;52.512;13.448;2023-02-18T09:01:21;100938.00;;;15.00
63220;BMP180;49320;52.512;13.448;2023-02-18T09:03:48;100922.00;;;15.00
63220;BMP180;49320;52.512;13.448;2023-02-18T09:06:15;100924.00;;;15.00
63220;BMP180;49320;52.512;13.448;2023-02-18T09:08:42;100928.00;;;15.00
63220;BMP180;49320;52.512;13.448;2023-02-18T09:11:10;100917.00;;;15.00
63220;BMP180;49320;52.512;13.448;2023-02-18T09:13:37;100903.00;;;15.00
63220;BMP180;49320;52.512;13.448;2023-02-18T09:16:09;100910.00;;;15.00
63220;BMP180;49320;52.512;13.448;2023-02-18T09:18:36;100905.00;;;15.00
63220;BMP180;49320;52.512;13.448;2023-02-18T09:21:06;100897.00;;;15.00
63220;BMP180;49320;52.512;13.448;2023-02-18T09:23:35;100891.00;;;15.00
63220;BMP180;49320;52.512;13.448;2023-02-18T09:26:10;100896.00;;;15.00
63220;BMP180;49320;52.512;13.448;2023-02-18T09:28:40;100889.00;;;15.00
63220;BMP180;49320;52.512;13.448;2023-02-18T09:31:10;100885.00;;;15.00
63220;BMP180;49320;52.512;13.448;2023-02-18T09:33:44;100875.00;;;15.10
63220;BMP180;49320;52.512;13.448;2023-02-18T09:36:12;100877.00;;;15.10
63220;BMP180;49320;52.512;13.448;2023-02-18T09:38:39;100877.00;;;15.10
63220;BMP180;49320;52.512;13.448;2023-02-18T09:41:16;100863.00;;;15.20
63220;BMP180;49320;52.512;13.448;2023-02-18T09:43:50;100874.00;;;15.20
63220;BMP180;49320;52.512;13.448;2023-02-18T09:46:27;100839.00;;;15.20
63220;BMP180;49320;52.512;13.448;2023-02-18T09:48:57;100835.00;;;15.20
63220;BMP180;49320;52.512;13.448;2023-02-18T09:51:26;100832.00;;;15.20
63220;BMP180;49320;52.512;13.448;2023-02-18T09:53:53;100830.00;;;15.30
63220;BMP180;49320;52.512;13.448;2023-02-18T09:56:28;100814.00;;;15.30
63220;BMP180;49320;52.512;13.448;2023-02-18T09:59:00;100806.00;;;15.30
63220;BMP180;49320;52.512;13.448;2023-02-18T10:01:37;100811.00;;;15.30
63220;BMP180;49320;52.512;13.448;2023-02-18T10:06:47;100803.00;;;15.40
63220;BMP180;49320;52.512;13.448;2023-02-18T10:09:27;100796.00;;;15.40
63220;BMP180;49320;52.512;13.448;2023-02-18T10:12:02;100796.00;;;15.40
63220;BMP180;49320;52.512;13.448;2023-02-18T10:14:33;100793.00;;;15.30
63220;BMP180;49320;52.512;13.448;2023-02-18T10:17:03;100797.00;;;15.30
63220;BMP180;49320;52.512;13.448;2023-02-18T10:19:33;100792.00;;;15.30
63220;BMP180;49320;52.512;13.448;2023-02-18T10:22:05;100772.00;;;15.30
63220;BMP180;49320;52.512;13.448;2023-02-18T10:24:49;100765.00;;;15.30
63220;BMP180;49320;52.512;13.448;2023-02-18T10:27:30;100755.00;;;15.30
63220;BMP180;49320;52.512;13.448;2023-02-18T10:30:29;100744.00;;;15.30
63220;BMP180;49320;52.512;13.448;2023-02-18T10:33:51;100729.00;;;15.30
63220;BMP180;49320;52.512;13.448;2023-02-18T10:36:44;100718.00;;;15.30
63220;BMP180;49320;52.512;13.448;2023-02-18T10:51:25;100653.00;;;15.40
63220;BMP180;49320;52.512;13.448;2023-02-18T10:53:54;100657.00;;;15.40
63220;BMP180;49320;52.512;13.448;2023-02-18T10:56:38;100650.00;;;15.50
63220;BMP180;49320;52.512;13.448;2023-02-18T10:59:22;100646.00;;;15.50
63220;BMP180;49320;52.512;13.448;2023-02-18T11:01:59;100634.00;;;15.50
63220;BMP180;49320;52.512;13.448;2023-02-18T11:04:37;100629.00;;;15.50
63220;BMP180;49320;52.512;13.448;2023-02-18T11:07:15;100613.00;;;15.50
63220;BMP180;49320;52.512;13.448;2023-02-18T11:09:54;100610.00;;;15.50
63220;BMP180;49320;52.512;13.448;2023-02-18T11:12:46;100600.00;;;15.50
63220;BMP180;49320;52.512;13.448;2023-02-18T11:17:45;100570.00;;;15.50
63220;BMP180;49320;52.512;13.448;2023-02-18T11:20:34;100558.00;;;15.50
63220;BMP180;49320;52.512;13.448;2023-02-18T11:23:18;100549.00;;;15.50
63220;BMP180;49320;52.512;13.448;2023-02-18T11:26:06;100542.00;;;15.60
63220;BMP180;49320;52.512;13.448;2023-02-18T11:28:48;100549.00;;;15.60
63220;BMP180;49320;52.512;13.448;2023-02-18T11:31:26;100533.00;;;15.60
63220;BMP180;49320;52.512;13.448;2023-02-18T11:34:00;100531.00;;;15.60
63220;BMP180;49320;52.512;13.448;2023-02-18T11:36:34;100538.00;;;15.60
63220;BMP180;49320;52.512;13.448;2023-02-18T11:39:06;100522.00;;;15.60
63220;BMP180;49320;52.512;13.448;2023-02-18T11:41:47;100517.00;;;15.50
63220;BMP180;49320;52.512;13.448;2023-02-18T11:44:36;100503.00;;;15.40
63220;BMP180;49320;52.512;13.448;2023-02-18T11:49:40;100497.00;;;15.40
63220;BMP180;49320;52.512;13.448;2023-02-18T11:52:25;100491.00;;;15.40
63220;BMP180;49320;52.512;13.448;2023-02-18T11:55:13;100465.00;;;15.40
63220;BMP180;49320;52.512;13.448;2023-02-18T11:57:51;100459.00;;;15.40
63220;BMP180;49320;52.512;13.448;2023-02-18T12:00:29;100457.00;;;15.30
63220;BMP180;49320;52.512;13.448;2023-02-18T12:03:13;100442.00;;;15.30
63220;BMP180;49320;52.512;13.448;2023-02-18T12:05:43;100444.00;;;15.30
63220;BMP180;49320;52.512;13.448;2023-02-18T12:08:24;100438.00;;;15.30
63220;BMP180;49320;52.512;13.448;2023-02-18T12:10:58;100428.00;;;15.30
63220;BMP180;49320;52.512;13.448;2023-02-18T12:13:54;100418.00;;;15.40
63220;BMP180;49320;52.512;13.448;2023-02-18T12:19:30;100406.00;;;15.50
63220;BMP180;49320;52.512;13.448;2023-02-18T12:22:32;100406.00;;;15.50
63220;BMP180;49320;52.512;13.448;2023-02-18T12:25:23;100412.00;;;15.60
63220;BMP180;49320;52.512;13.448;2023-02-18T12:34:16;100395.00;;;15.70
63220;BMP180;49320;52.512;13.448;2023-02-18T12:43:08;100369.00;;;15.80
63220;BMP180;49320;52.512;13.448;2023-02-18T13:01:08;100338.00;;;16.10
63220;BMP180;49320;52.512;13.448;2023-02-18T13:07:23;100314.00;;;16.40
63220;BMP180;49320;52.512;13.448;2023-02-18T13:13:21;100303.00;;;16.50
63220;BMP180;49320;52.512;13.448;2023-02-18T13:16:05;100309.00;;;16.60
63220;BMP180;49320;52.512;13.448;2023-02-18T13:18:41;100303.00;;;16.70
63220;BMP180;49320;52.512;13.448;2023-02-18T13:21:15;100299.00;;;16.80
63220;BMP180;49320;52.512;13.448;2023-02-18T13:23:50;100289.00;;;16.90
63220;BMP180;49320;52.512;13.448;2023-02-18T13:26:20;100287.00;;;17.00
63220;BMP180;49320;52.512;13.448;2023-02-18T13:29:15;100288.00;;;17.10
63220;BMP180;49320;52.512;13.448;2023-02-18T13:32:12;100304.00;;;17.10
63220;BMP180;49320;52.512;13.448;2023-02-18T13:35:22;100296.00;;;17.10
63220;BMP180;49320;52.512;13.448;2023-02-18T13:38:30;100309.00;;;17.10
63220;BMP180;49320;52.512;13.448;2023-02-18T13:41:01;100304.00;;;17.10
63220;BMP180;49320;52.512;13.448;2023-02-18T13:43:33;100284.00;;;17.10
63220;BMP180;49320;52.512;13.448;2023-02-18T13:46:21;100301.00;;;17.20
63220;BMP180;49320;52.512;13.448;2023-02-18T13:48:49;100293.00;;;17.20
63220;BMP180;49320;52.512;13.448;2023-02-18T13:51:46;100289.00;;;17.20
63220;BMP180;49320;52.512;13.448;2023-02-18T13:54:40;100297.00;;;17.10
63220;BMP180;49320;52.512;13.448;2023-02-18T13:57:20;100294.00;;;17.10
63220;BMP180;49320;52.512;13.448;2023-02-18T13:59:56;100287.00;;;17.10
63220;BMP180;49320;52.512;13.448;2023-02-18T14:04:54;100297.00;;;17.20
63220;BMP180;49320;52.512;13.448;2023-02-18T14:10:23;100294.00;;;17.20
63220;BMP180;49320;52.512;13.448;2023-02-18T14:25:52;100285.00;;;17.20
63220;BMP180;49320;52.512;13.448;2023-02-18T14:31:33;100280.00;;;17.20
63220;BMP180;49320;52.512;13.448;2023-02-18T14:40:48;100270.00;;;17.20
63220;BMP180;49320;52.512;13.448;2023-02-18T14:44:01;100287.00;;;17.10
63220;BMP180;49320;52.512;13.448;2023-02-18T14:47:04;100288.00;;;17.10
63220;BMP180;49320;52.512;13.448;2023-02-18T14:49:43;100298.00;;;17.10
63220;BMP180;49320;52.512;13.448;2023-02-18T14:52:27;100295.00;;;17.10
63220;BMP180;49320;52.512;13.448;2023-02-18T14:54:57;100308.00;;;17.10
63220;BMP180;49320;52.512;13.448;2023-02-18T14:57:43;100314.00;;;17.10
63220;BMP180;49320;52.512;13.448;2023-02-18T15:00:18;100297.00;;;17.10
63220;BMP180;49320;52.512;13.448;2023-02-18T15:02:53;100305.00;;;17.10
63220;BMP180;49320;52.512;13.448;2023-02-18T15:05:29;100316.00;;;17.10
63220;BMP180;49320;52.512;13.448;2023-02-18T15:08:00;100316.00;;;17.10
63220;BMP180;49320;52.512;13.448;2023-02-18T15:10:43;100292.00;;;17.00
63220;BMP180;49320;52.512;13.448;2023-02-18T15:13:24;100313.00;;;17.00
63220;BMP180;49320;52.512;13.448;2023-02-18T15:16:13;100299.00;;;17.00
63220;BMP180;49320;52.512;13.448;2023-02-18T15:18:48;100312.00;;;17.00
63220;BMP180;49320;52.512;13.448;2023-02-18T15:21:31;100315.00;;;17.00
63220;BMP180;49320;52.512;13.448;2023-02-18T15:24:29;100308.00;;;17.00
63220;BMP180;49320;52.512;13.448;2023-02-18T15:27:13;100314.00;;;17.00
63220;BMP180;49320;52.512;13.448;2023-02-18T15:29:40;100313.00;;;16.90
63220;BMP180;49320;52.512;13.448;2023-02-18T15:32:23;100323.00;;;16.90
63220;BMP180;49320;52.512;13.448;2023-02-18T15:34:57;100324.00;;;16.90
63220;BMP180;49320;52.512;13.448;2023-02-18T15:37:24;100342.00;;;16.90
63220;BMP180;49320;52.512;13.448;2023-02-18T15:39:51;100350.00;;;16.90
63220;BMP180;49320;52.512;13.448;2023-02-18T15:42:38;100347.00;;;16.90
63220;BMP180;49320;52.512;13.448;2023-02-18T15:45:18;100359.00;;;16.90
63220;BMP180;49320;52.512;13.448;2023-02-18T15:47:49;100364.00;;;17.00
63220;BMP180;49320;52.512;13.448;2023-02-18T15:50:21;100383.00;;;17.00
63220;BMP180;49320;52.512;13.448;2023-02-18T15:52:51;100399.00;;;16.90
63220;BMP180;49320;52.512;13.448;2023-02-18T15:55:37;100408.00;;;16.90
63220;BMP180;49320;52.512;13.448;2023-02-18T15:58:13;100391.00;;;16.90
63220;BMP180;49320;52.512;13.448;2023-02-18T16:00:53;100414.00;;;16.90
63220;BMP180;49320;52.512;13.448;2023-02-18T16:03:28;100404.00;;;17.00
63220;BMP180;49320;52.512;13.448;2023-02-18T16:06:17;100410.00;;;17.00
63220;BMP180;49320;52.512;13.448;2023-02-18T16:09:25;100423.00;;;17.00
63220;BMP180;49320;52.512;13.448;2023-02-18T16:11:58;100426.00;;;17.00